Time;durP1;ratioP1;P1;durP2;ratioP2;P2;SDS_P1;SDS_P2;PMS_P1;PMS_P2;Temp;Humidity;BMP_temperature;BMP_pressure;BME280_temperature;BME280_humidity;BME280_pressure;Samples;Min_cycle;Max_cycle;Signal;HPM_P1;HPM_P2
2021/04/15 00:05:44;;;;;;;0.57;0.50;;;12.50;99.90;;;;;;20736542;28;20773;-77
2021/04/15 00:15:47;;;;;;;0.40;0.40;;;12.60;99.90;;;;;;20702403;28;20689;-77
2021/04/15 00:25:51;;;;;;;0.87;0.60;;;12.60;99.90;;;;;;20733110;28;20249;-77
2021/04/15 00:35:54;;;;;;;0.90;0.90;;;12.60;99.90;;;;;;20734195;28;20215;-78
2021/04/15 00:46:01;;;;;;;0.60;0.60;;;12.60;99.90;;;;;;20708930;28;20218;-74
2021/04/15 00:56:05;;;;;;;0.70;0.60;;;12.50;99.90;;;;;;20734831;28;20217;-74
2021/04/15 01:06:10;;;;;;;2.40;0.77;;;12.50;99.90;;;;;;20734531;28;20671;-75
2021/04/15 01:16:31;;;;;;;1.03;0.70;;;12.50;99.90;;;;;;20733960;28;20273;-75
2021/04/15 01:50:01;;;;;;;2.47;1.37;;;12.40;99.90;;;;;;20739712;28;20219;-75
2021/04/15 02:10:44;;;;;;;0.30;0.30;;;12.30;99.90;;;;;;20747174;28;20280;-76
2021/04/15 02:42:54;;;;;;;1.33;0.63;;;12.30;99.90;;;;;;20706494;28;20230;-73
2021/04/15 02:53:02;;;;;;;0.57;0.50;;;12.00;99.90;;;;;;20726973;28;20199;-77
2021/04/15 03:03:09;;;;;;;0.40;0.40;;;11.70;99.90;;;;;;20738380;28;20643;-77
2021/04/15 03:13:15;;;;;;;0.83;0.63;;;11.40;99.90;;;;;;20742694;28;20289;-76
2021/04/15 03:23:28;;;;;;;0.70;0.70;;;11.60;99.90;;;;;;20741663;28;20261;-77
2021/04/15 03:33:40;;;;;;;0.30;0.30;;;11.60;99.90;;;;;;20740327;28;20684;-71
2021/04/15 03:43:51;;;;;;;0.20;0.10;;;11.60;99.90;;;;;;20786444;28;20305;-79
2021/04/15 03:54:00;;;;;;;0.80;0.50;;;11.60;99.90;;;;;;20803150;28;20256;-76
2021/04/15 04:04:09;;;;;;;0.50;0.30;;;11.60;99.90;;;;;;20819786;28;20240;-77
2021/04/15 04:14:16;;;;;;;0.57;0.43;;;11.70;99.90;;;;;;20819506;28;20346;-78
2021/04/15 04:24:28;;;;;;;0.37;0.37;;;11.70;99.90;;;;;;20800671;28;20230;-76
2021/04/15 04:34:33;;;;;;;0.30;0.30;;;12.00;99.90;;;;;;20786326;28;20226;-76
2021/04/15 04:44:42;;;;;;;0.77;0.77;;;11.80;99.90;;;;;;20736087;28;20226;-78
2021/04/15 04:54:46;;;;;;;0.57;0.30;;;11.90;99.90;;;;;;20700624;28;20331;-77
2021/04/15 05:04:59;;;;;;;;;;;;;;;;;;;;;
2021/04/15 05:15:26;;;;;;;0.60;0.60;;;12.30;99.90;;;;;;20700064;28;20294;-78
2021/04/15 05:25:40;;;;;;;0.67;0.63;;;12.40;99.90;;;;;;20732179;28;20230;-81
2021/04/15 05:35:47;;;;;;;0.50;0.47;;;12.70;99.90;;;;;;20731217;28;20274;-78
2021/04/15 05:46:08;;;;;;;0.27;0.27;;;12.70;99.90;;;;;;20812714;28;20875;-78
2021/04/15 05:56:16;;;;;;;0.20;0.20;;;12.70;99.90;;;;;;20792793;28;20208;-78
2021/04/15 06:07:04;;;;;;;2.63;1.07;;;12.70;99.90;;;;;;20807751;28;20241;-79
2021/04/15 06:17:33;;;;;;;0.60;0.50;;;12.80;99.90;;;;;;20790231;28;20198;-78
2021/04/15 06:27:41;;;;;;;0.20;0.20;;;12.80;99.90;;;;;;20788502;28;20333;-80
2021/04/15 06:38:15;;;;;;;0.47;0.47;;;13.00;99.90;;;;;;20819810;28;20198;-81
2021/04/15 06:48:48;;;;;;;4.03;0.90;;;13.10;99.90;;;;;;20785259;28;20724;-79
2021/04/15 06:59:10;;;;;;;1.30;1.17;;;13.20;99.90;;;;;;20738390;28;20238;-72
2021/04/15 07:09:57;;;;;;;1.00;0.47;;;13.70;99.90;;;;;;20717840;28;20309;-71
2021/04/15 07:20:46;;;;;;;0.37;0.20;;;14.10;99.90;;;;;;20719403;28;20199;-74
2021/04/15 07:31:27;;;;;;;1.10;0.70;;;14.30;99.90;;;;;;20738046;28;20234;-74
2021/04/15 07:41:43;;;;;;;5.53;1.33;;;14.50;99.90;;;;;;20784191;28;20198;-77
2021/04/15 07:52:12;;;;;;;0.20;0.17;;;14.40;99.90;;;;;;20818401;28;20390;-74
2021/04/15 08:02:44;;;;;;;0.20;0.10;;;14.60;99.90;;;;;;20777979;28;20659;-75
2021/04/15 08:13:26;;;;;;;0.20;0.20;;;14.80;99.90;;;;;;20702034;28;20191;-76
2021/04/15 08:24:11;;;;;;;11.37;1.03;;;14.50;99.90;;;;;;20700033;28;20227;-76
2021/04/15 08:34:30;;;;;;;0.23;0.23;;;14.80;99.90;;;;;;20600572;28;20214;-77
2021/04/15 08:45:10;;;;;;;0.20;0.20;;;15.30;99.90;;;;;;20775204;28;20218;-80
2021/04/15 09:28:06;;;;;;;0.50;0.30;;;16.80;99.90;;;;;;20236928;29;20237;-75
2021/04/15 09:38:42;;;;;;;0.40;0.40;;;16.80;99.90;;;;;;20476055;28;20207;-81
2021/04/15 09:49:00;;;;;;;7.33;2.57;;;16.50;99.90;;;;;;20568190;28;20314;-78
2021/04/15 09:59:15;;;;;;;0.30;0.30;;;17.00;99.90;;;;;;20543309;28;20236;-77
2021/04/15 10:09:38;;;;;;;0.83;0.70;;;17.30;99.90;;;;;;20492349;28;20319;-77
2021/04/15 10:20:35;;;;;;;0.27;0.17;;;17.10;99.90;;;;;;20505482;29;20236;-81
2021/04/15 10:31:19;;;;;;;0.20;0.20;;;17.30;99.90;;;;;;20496072;29;20237;-78
2021/04/15 10:42:06;;;;;;;0.30;0.20;;;17.70;99.90;;;;;;20524081;28;20204;-78
2021/04/15 10:52:26;;;;;;;0.30;0.30;;;17.90;99.90;;;;;;20594363;23;20236;-74
2021/04/15 11:02:47;;;;;;;6.40;1.10;;;18.10;99.90;;;;;;20583362;28;20239;-78
2021/04/15 11:13:05;;;;;;;0.43;0.43;;;18.40;99.90;;;;;;20585348;28;20315;-80
2021/04/15 11:23:28;;;;;;;3.87;1.33;;;19.00;99.90;;;;;;20584692;28;20197;-84
2021/04/15 11:33:39;;;;;;;0.50;0.50;;;19.90;99.90;;;;;;20563285;28;20208;-81
2021/04/15 11:43:45;;;;;;;0.60;0.60;;;20.30;99.90;;;;;;20640094;28;20282;-83
2021/04/15 11:54:03;;;;;;;0.83;0.83;;;20.90;99.90;;;;;;20643621;28;20235;-78
2021/04/15 12:04:51;;;;;;;;;;;;;;;;;;;;;
2021/04/15 12:15:04;;;;;;;0.77;0.50;;;19.00;99.90;;;;;;20580447;28;20208;-84
2021/04/15 12:36:36;;;;;;;2.60;0.70;;;19.90;99.90;;;;;;20573635;28;20199;-73
2021/04/15 12:46:56;;;;;;;0.20;0.20;;;19.80;99.90;;;;;;20593238;23;20748;-78
2021/04/15 12:57:16;;;;;;;4.10;0.70;;;20.80;99.90;;;;;;20569010;28;20676;-81
2021/04/15 13:07:40;;;;;;;2.87;0.70;;;21.50;99.90;;;;;;20583935;28;20262;-83
2021/04/15 13:17:51;;;;;;;1.33;0.67;;;20.50;99.90;;;;;;20559123;28;20331;-86
2021/04/15 13:28:05;;;;;;;0.83;0.30;;;21.40;99.90;;;;;;20576442;28;20235;-83
2021/04/15 13:38:43;;;;;;;2.57;0.70;;;23.00;99.90;;;;;;20594976;28;20227;-78
2021/04/15 13:48:48;;;;;;;0.60;0.40;;;22.60;99.90;;;;;;20581259;28;20262;-85
2021/04/15 13:58:54;;;;;;;0.97;0.63;;;22.10;99.90;;;;;;20544269;28;20256;-75
2021/04/15 14:09:16;;;;;;;3.83;1.47;;;23.30;99.90;;;;;;20487525;29;20247;-73
2021/04/15 14:19:34;;;;;;;0.30;0.20;;;23.10;99.90;;;;;;20504710;29;20236;-78
2021/04/15 14:29:43;;;;;;;0.23;0.13;;;22.70;99.90;;;;;;20504286;29;20232;-78
2021/04/15 14:39:49;;;;;;;0.50;0.50;;;22.80;99.90;;;;;;20541042;28;20767;-77
2021/04/15 14:50:04;;;;;;;0.20;0.20;;;22.20;99.90;;;;;;20641808;28;20719;-75
2021/04/15 15:00:11;;;;;;;2.00;0.63;;;22.40;99.90;;;;;;20604431;28;20196;-74
2021/04/15 15:10:21;;;;;;;1.70;1.23;;;22.70;99.90;;;;;;20559548;28;20295;-77
2021/04/15 15:20:35;;;;;;;3.07;1.80;;;23.00;99.90;;;;;;20576686;28;20199;-73
2021/04/15 15:30:41;;;;;;;2.93;0.77;;;22.10;99.90;;;;;;20577620;28;20250;-73
2021/04/15 15:52:06;;;;;;;0.60;0.50;;;21.70;99.90;;;;;;20738085;28;20241;-74
2021/04/15 16:02:23;;;;;;;1.57;0.70;;;20.40;99.90;;;;;;21162400;23;20730;-76
2021/04/15 16:12:56;;;;;;;0.50;0.50;;;19.30;99.90;;;;;;20948880;23;20234;-78
2021/04/15 16:35:13;;;;;;;0.73;0.73;;;18.30;99.90;;;;;;20590365;23;20265;-78
2021/04/15 16:46:50;;;;;;;0.40;0.40;;;17.50;99.90;;;;;;20832144;23;20239;-78
2021/04/15 16:57:17;;;;;;;0.30;0.13;;;17.70;99.90;;;;;;20642425;23;20211;-80
2021/04/15 17:19:24;;;;;;;1.13;0.67;;;17.30;99.90;;;;;;20571671;28;20625;-77
2021/04/15 18:04:10;;;;;;;2.10;1.27;;;15.10;99.90;;;;;;20724708;23;20711;-79
2021/04/15 18:26:56;;;;;;;0.93;0.83;;;14.20;99.90;;;;;;22315857;23;20931;-80
2021/04/15 18:48:08;;;;;;;0.70;0.70;;;13.80;99.90;;;;;;20795189;23;20295;-79
2021/04/15 18:58:16;;;;;;;1.10;0.53;;;14.00;99.90;;;;;;20821907;28;20202;-77
2021/04/15 19:09:19;;;;;;;0.60;0.43;;;13.90;99.90;;;;;;20723684;28;20237;-80
2021/04/15 19:19:48;;;;;;;2.67;0.73;;;13.50;99.90;;;;;;20770606;23;20878;-76
2021/04/15 19:29:51;;;;;;;1.20;0.73;;;13.70;99.90;;;;;;20804847;28;20295;-77
2021/04/15 19:39:54;;;;;;;0.50;0.30;;;13.50;99.90;;;;;;20850662;28;20198;-79
2021/04/15 19:50:08;;;;;;;0.53;0.40;;;13.60;99.90;;;;;;20901601;28;20243;-77
2021/04/15 20:00:19;;;;;;;1.07;0.60;;;13.70;99.90;;;;;;20845998;28;20595;-77
2021/04/15 20:10:25;;;;;;;0.90;0.47;;;13.60;99.90;;;;;;20833625;23;20246;-75
2021/04/15 20:20:39;;;;;;;0.53;0.47;;;13.50;99.90;;;;;;20734225;28;20207;-77
2021/04/15 20:42:48;;;;;;;4.63;1.50;;;13.50;99.90;;;;;;20441216;29;20201;-75
2021/04/15 20:53:27;;;;;;;0.93;0.50;;;13.40;99.90;;;;;;20402516;28;20608;-76
2021/04/15 21:03:32;;;;;;;0.20;0.20;;;13.30;99.90;;;;;;20402152;29;20592;-77
2021/04/15 21:13:36;;;;;;;0.80;0.77;;;13.20;99.90;;;;;;20542046;28;20231;-76
2021/04/15 21:23:40;;;;;;;2.10;0.50;;;13.20;99.90;;;;;;20647146;28;20232;-79
2021/04/15 21:33:43;;;;;;;0.50;0.50;;;13.20;99.90;;;;;;20702915;28;20222;-76
2021/04/15 21:43:47;;;;;;;1.07;0.60;;;13.20;99.90;;;;;;20795136;28;20241;-74
2021/04/15 21:53:50;;;;;;;0.50;0.50;;;13.30;99.90;;;;;;20812904;28;20313;-74
2021/04/15 22:03:55;;;;;;;0.80;0.80;;;13.30;99.90;;;;;;20731831;28;20211;-75
2021/04/15 22:13:59;;;;;;;4.20;2.07;;;13.40;99.90;;;;;;20748093;28;20924;-74
2021/04/15 22:24:07;;;;;;;0.50;0.50;;;13.30;99.90;;;;;;20728891;28;20602;-73
2021/04/15 22:34:10;;;;;;;3.53;1.10;;;13.30;99.90;;;;;;20728209;28;20206;-73
2021/04/15 22:44:15;;;;;;;0.97;0.57;;;13.40;99.90;;;;;;20813663;28;20198;-74
2021/04/15 22:54:18;;;;;;;0.23;0.20;;;13.30;99.90;;;;;;20826249;28;20194;-74
2021/04/15 23:04:22;;;;;;;0.67;0.40;;;13.40;99.90;;;;;;20737514;28;20257;-75
2021/04/15 23:14:24;;;;;;;0.30;0.30;;;13.30;99.90;;;;;;20748564;23;20706;-74
2021/04/15 23:24:28;;;;;;;0.23;0.20;;;13.20;99.90;;;;;;20741309;28;20241;-74
2021/04/15 23:34:31;;;;;;;1.03;0.93;;;13.10;99.90;;;;;;20812680;28;20268;-75
2021/04/15 23:44:34;;;;;;;2.50;0.30;;;13.00;99.90;;;;;;20893554;28;20725;-75
2021/04/15 23:54:37;;;;;;;1.50;0.67;;;13.00;99.90;;;;;;20886681;28;20206;-75
